sensor_id;sensor_type;location;lat;lon;timestamp;pressure;altitude;pressure_sealevel;temperature;humidity
6413;BME280;3239;48.714;9.472;2023-10-09T00:02:12;98506.59;;;11.01;100.00
6413;BME280;3239;48.714;9.472;2023-10-09T00:04:42;98488.38;;;10.85;100.00
6413;BME280;3239;48.714;9.472;2023-10-09T00:07:11;98493.50;;;10.94;100.00
6413;BME280;3239;48.714;9.472;2023-10-09T00:09:38;98488.16;;;10.83;100.00
6413;BME280;3239;48.714;9.472;2023-10-09T00:12:18;98480.50;;;10.76;100.00
6413;BME280;3239;48.714;9.472;2023-10-09T00:14:51;98483.91;;;10.82;100.00
6413;BME280;3239;48.714;9.472;2023-10-09T00:17:21;98475.91;;;10.65;100.00
6413;BME280;3239;48.714;9.472;2023-10-09T00:19:49;98478.38;;;10.69;100.00
6413;BME280;3239;48.714;9.472;2023-10-09T00:22:17;98470.09;;;10.74;100.00
6413;BME280;3239;48.714;9.472;2023-10-09T00:24:49;98469.34;;;10.74;100.00
6413;BME280;3239;48.714;9.472;2023-10-09T00:27:35;98457.19;;;10.69;100.00
6413;BME280;3239;48.714;9.472;2023-10-09T00:30:02;98461.16;;;10.68;100.00
6413;BME280;3239;48.714;9.472;2023-10-09T00:32:29;98458.66;;;10.70;100.00
6413;BME280;3239;48.714;9.472;2023-10-09T00:34:59;98444.66;;;10.74;100.00
6413;BME280;3239;48.714;9.472;2023-10-09T00:37:44;98445.13;;;10.78;100.00
6413;BME280;3239;48.714;9.472;2023-10-09T00:40:11;98442.69;;;10.74;100.00
6413;BME280;3239;48.714;9.472;2023-10-09T00:42:46;98435.69;;;10.73;100.00
6413;BME280;3239;48.714;9.472;2023-10-09T00:45:13;98425.28;;;10.72;100.00
6413;BME280;3239;48.714;9.472;2023-10-09T00:47:51;98423.34;;;10.67;100.00
6413;BME280;3239;48.714;9.472;2023-10-09T00:50:21;98428.38;;;10.63;100.00
6413;BME280;3239;48.714;9.472;2023-10-09T00:52:54;98431.19;;;10.57;100.00
6413;BME280;3239;48.714;9.472;2023-10-09T00:55:32;98415.78;;;10.54;100.00
6413;BME280;3239;48.714;9.472;2023-10-09T00:58:14;98422.28;;;10.51;100.00
6413;BME280;3239;48.714;9.472;2023-10-09T01:00:50;98420.06;;;10.50;100.00
6413;BME280;3239;48.714;9.472;2023-10-09T01:03:19;98424.16;;;10.43;100.00
6413;BME280;3239;48.714;9.472;2023-10-09T01:05:58;98404.22;;;10.43;100.00
6413;BME280;3239;48.714;9.472;2023-10-09T01:08:34;98404.72;;;10.41;100.00
6413;BME280;3239;48.714;9.472;2023-10-09T01:13:40;98391.50;;;10.45;100.00
6413;BME280;3239;48.714;9.472;2023-10-09T01:16:12;98395.94;;;10.48;100.00
6413;BME280;3239;48.714;9.472;2023-10-09T01:18:46;98394.16;;;10.51;100.00
6413;BME280;3239;48.714;9.472;2023-10-09T01:21:16;98388.91;;;10.53;100.00
6413;BME280;3239;48.714;9.472;2023-10-09T01:23:44;98393.13;;;10.54;100.00
6413;BME280;3239;48.714;9.472;2023-10-09T01:26:47;98393.06;;;10.59;100.00
6413;BME280;3239;48.714;9.472;2023-10-09T01:29:20;98382.53;;;10.63;100.00
6413;BME280;3239;48.714;9.472;2023-10-09T01:31:50;98382.31;;;10.61;100.00
6413;BME280;3239;48.714;9.472;2023-10-09T01:34:22;98377.59;;;10.62;100.00
6413;BME280;3239;48.714;9.472;2023-10-09T01:37:14;98373.38;;;10.61;100.00
6413;BME280;3239;48.714;9.472;2023-10-09T01:39:54;98382.97;;;10.67;100.00
6413;BME280;3239;48.714;9.472;2023-10-09T01:42:24;98378.97;;;10.68;100.00
6413;BME280;3239;48.714;9.472;2023-10-09T01:45:00;98378.53;;;10.64;100.00
6413;BME280;3239;48.714;9.472;2023-10-09T01:47:44;98367.88;;;10.61;100.00
6413;BME280;3239;48.714;9.472;2023-10-09T01:50:23;98371.81;;;10.65;100.00
6413;BME280;3239;48.714;9.472;2023-10-09T01:52:52;98374.69;;;10.73;100.00
6413;BME280;3239;48.714;9.472;2023-10-09T01:55:18;98365.94;;;10.74;100.00
6413;BME280;3239;48.714;9.472;2023-10-09T01:58:03;98366.91;;;10.77;100.00
6413;BME280;3239;48.714;9.472;2023-10-09T02:00:48;98362.16;;;10.77;100.00
6413;BME280;3239;48.714;9.472;2023-10-09T02:03:19;98366.59;;;10.80;100.00
6413;BME280;3239;48.714;9.472;2023-10-09T02:05:49;98365.84;;;10.80;100.00
6413;BME280;3239;48.714;9.472;2023-10-09T02:08:19;98368.69;;;10.74;100.00
6413;BME280;3239;48.714;9.472;2023-10-09T02:10:53;98370.16;;;10.75;100.00
6413;BME280;3239;48.714;9.472;2023-10-09T02:13:22;98365.94;;;10.74;100.00
6413;BME280;3239;48.714;9.472;2023-10-09T02:16:00;98375.13;;;10.77;100.00
6413;BME280;3239;48.714;9.472;2023-10-09T02:18:38;98365.72;;;10.72;100.00
6413;BME280;3239;48.714;9.472;2023-10-09T02:21:21;98365.72;;;10.72;100.00
6413;BME280;3239;48.714;9.472;2023-10-09T02:24:05;98369.94;;;10.73;100.00
6413;BME280;3239;48.714;9.472;2023-10-09T02:26:35;98371.72;;;10.71;100.00
6413;BME280;3239;48.714;9.472;2023-10-09T02:29:03;98372.25;;;10.69;100.00
6413;BME280;3239;48.714;9.472;2023-10-09T02:31:50;98366.78;;;10.69;100.00
6413;BME280;3239;48.714;9.472;2023-10-09T02:34:26;98370.75;;;10.68;100.00
6413;BME280;3239;48.714;9.472;2023-10-09T02:36:53;98367.28;;;10.68;100.00
6413;BME280;3239;48.714;9.472;2023-10-09T02:39:26;98359.56;;;10.66;100.00
6413;BME280;3239;48.714;9.472;2023-10-09T02:41:56;98363.34;;;10.63;100.00
6413;BME280;3239;48.714;9.472;2023-10-09T02:44:44;98368.31;;;10.65;100.00
6413;BME280;3239;48.714;9.472;2023-10-09T02:47:19;98360.09;;;10.65;100.00
6413;BME280;3239;48.714;9.472;2023-10-09T02:49:56;98365.56;;;10.65;100.00
6413;BME280;3239;48.714;9.472;2023-10-09T02:52:33;98364.59;;;10.62;100.00
6413;BME280;3239;48.714;9.472;2023-10-09T02:55:06;98368.59;;;10.61;100.00
6413;BME280;3239;48.714;9.472;2023-10-09T02:57:48;98381.34;;;10.59;100.00
6413;BME280;3239;48.714;9.472;2023-10-09T03:00:17;98371.88;;;10.60;100.00
6413;BME280;3239;48.714;9.472;2023-10-09T03:02:55;98378.41;;;10.57;100.00
6413;BME280;3239;48.714;9.472;2023-10-09T03:05:24;98370.47;;;10.53;100.00
6413;BME280;3239;48.714;9.472;2023-10-09T03:07:53;98369.94;;;10.55;100.00
6413;BME280;3239;48.714;9.472;2023-10-09T03:10:22;98369.13;;;10.60;100.00
6413;BME280;3239;48.714;9.472;2023-10-09T03:12:49;98359.88;;;10.63;100.00
6413;BME280;3239;48.714;9.472;2023-10-09T03:15:22;98368.31;;;10.65;100.00
6413;BME280;3239;48.714;9.472;2023-10-09T03:17:48;98355.38;;;10.65;100.00
6413;BME280;3239;48.714;9.472;2023-10-09T03:20:15;98352.31;;;10.69;100.00
6413;BME280;3239;48.714;9.472;2023-10-09T03:22:44;98352.53;;;10.71;100.00
6413;BME280;3239;48.714;9.472;2023-10-09T03:25:14;98352.25;;;10.74;100.00
6413;BME280;3239;48.714;9.472;2023-10-09T03:27:43;98351.72;;;10.76;100.00
6413;BME280;3239;48.714;9.472;2023-10-09T03:30:14;98351.19;;;10.77;100.00
6413;BME280;3239;48.714;9.472;2023-10-09T03:32:52;98331.50;;;10.79;100.00
6413;BME280;3239;48.714;9.472;2023-10-09T03:35:19;98340.47;;;10.79;100.00
6413;BME280;3239;48.714;9.472;2023-10-09T03:37:59;98339.72;;;10.79;100.00
6413;BME280;3239;48.714;9.472;2023-10-09T03:40:41;98354.91;;;10.80;100.00
6413;BME280;3239;48.714;9.472;2023-10-09T03:43:11;98338.59;;;10.87;100.00
6413;BME280;3239;48.714;9.472;2023-10-09T03:45:37;98334.69;;;10.83;100.00
6413;BME280;3239;48.714;9.472;2023-10-09T03:48:11;98348.69;;;10.79;100.00
6413;BME280;3239;48.714;9.472;2023-10-09T03:50:58;98347.44;;;10.80;100.00
6413;BME280;3239;48.714;9.472;2023-10-09T03:53:51;98341.50;;;10.76;100.00
6413;BME280;3239;48.714;9.472;2023-10-09T03:56:18;98325.66;;;10.69;100.00
6413;BME280;3239;48.714;9.472;2023-10-09T03:58:48;98340.53;;;10.74;100.00
6413;BME280;3239;48.714;9.472;2023-10-09T04:01:20;98344.09;;;10.69;100.00
6413;BME280;3239;48.714;9.472;2023-10-09T04:04:00;98329.13;;;10.70;100.00
6413;BME280;3239;48.714;9.472;2023-10-09T04:06:31;98322.69;;;10.67;100.00
6413;BME280;3239;48.714;9.472;2023-10-09T04:09:05;98327.00;;;10.63;100.00
6413;BME280;3239;48.714;9.472;2023-10-09T04:11:55;98326.03;;;10.60;100.00
6413;BME280;3239;48.714;9.472;2023-10-09T04:14:39;98327.72;;;10.63;100.00
6413;BME280;3239;48.714;9.472;2023-10-09T04:17:23;98319.59;;;10.58;100.00
6413;BME280;3239;48.714;9.472;2023-10-09T04:19:55;98323.75;;;10.64;100.00
6413;BME280;3239;48.714;9.472;2023-10-09T04:22:41;98332.19;;;10.66;100.00
6413;BME280;3239;48.714;9.472;2023-10-09T04:25:20;98329.53;;;10.61;100.00
6413;BME280;3239;48.714;9.472;2023-10-09T04:27:55;98326.56;;;10.59;100.00
6413;BME280;3239;48.714;9.472;2023-10-09T04:30:39;98327.81;;;10.58;100.00
6413;BME280;3239;48.714;9.472;2023-10-09T04:33:22;98327.38;;;10.54;100.00
6413;BME280;3239;48.714;9.472;2023-10-09T04:36:10;98331.31;;;10.58;100.00
6413;BME280;3239;48.714;9.472;2023-10-09T04:38:48;98329.81;;;10.57;100.00
6413;BME280;3239;48.714;9.472;2023-10-09T04:41:33;98328.56;;;10.58;100.00
6413;BME280;3239;48.714;9.472;2023-10-09T04:44:09;98337.00;;;10.60;100.00
6413;BME280;3239;48.714;9.472;2023-10-09T04:46:55;98329.53;;;10.61;100.00
6413;BME280;3239;48.714;9.472;2023-10-09T04:49:38;98321.06;;;10.59;100.00
6413;BME280;3239;48.714;9.472;2023-10-09T04:52:28;98335.38;;;10.52;100.00
6413;BME280;3239;48.714;9.472;2023-10-09T04:54:54;98323.38;;;10.55;100.00
6413;BME280;3239;48.714;9.472;2023-10-09T04:57:35;98326.41;;;10.51;100.00
6413;BME280;3239;48.714;9.472;2023-10-09T05:00:17;98314.94;;;10.53;100.00
6413;BME280;3239;48.714;9.472;2023-10-09T05:02:54;98320.63;;;10.55;100.00
6413;BME280;3239;48.714;9.472;2023-10-09T05:05:29;98321.59;;;10.57;100.00
6413;BME280;3239;48.714;9.472;2023-10-09T05:08:12;98331.59;;;10.55;100.00
6413;BME280;3239;48.714;9.472;2023-10-09T05:10:44;98326.66;;;10.53;100.00
6413;BME280;3239;48.714;9.472;2023-10-09T05:13:35;98328.19;;;10.49;100.00
6413;BME280;3239;48.714;9.472;2023-10-09T05:16:16;98324.94;;;10.50;100.00
6413;BME280;3239;48.714;9.472;2023-10-09T05:18:51;98331.22;;;10.45;100.00
6413;BME280;3239;48.714;9.472;2023-10-09T05:21:36;98325.97;;;10.47;100.00
6413;BME280;3239;48.714;9.472;2023-10-09T05:24:13;98326.84;;;10.55;100.00
6413;BME280;3239;48.714;9.472;2023-10-09T05:26:43;98325.84;;;10.58;100.00
6413;BME280;3239;48.714;9.472;2023-10-09T05:29:32;98323.09;;;10.58;100.00
6413;BME280;3239;48.714;9.472;2023-10-09T05:31:59;98326.03;;;10.60;100.00
6413;BME280;3239;48.714;9.472;2023-10-09T05:34:26;98322.25;;;10.63;100.00
6413;BME280;3239;48.714;9.472;2023-10-09T05:37:21;98324.25;;;10.63;100.00
6413;BME280;3239;48.714;9.472;2023-10-09T05:40:06;98331.00;;;10.62;100.00
6413;BME280;3239;48.714;9.472;2023-10-09T05:42:45;98325.44;;;10.49;100.00
6413;BME280;3239;48.714;9.472;2023-10-09T05:45:23;98335.28;;;10.57;100.00
6413;BME280;3239;48.714;9.472;2023-10-09T05:48:07;98330.78;;;10.60;100.00
6413;BME280;3239;48.714;9.472;2023-10-09T05:50:39;98337.00;;;10.60;100.00
6413;BME280;3239;48.714;9.472;2023-10-09T05:53:24;98335.44;;;10.65;100.00
6413;BME280;3239;48.714;9.472;2023-10-09T05:56:09;98333.66;;;10.67;100.00
6413;BME280;3239;48.714;9.472;2023-10-09T05:58:54;98319.44;;;10.69;100.00
6413;BME280;3239;48.714;9.472;2023-10-09T06:01:32;98324.84;;;10.74;100.00
6413;BME280;3239;48.714;9.472;2023-10-09T06:04:16;98328.00;;;10.78;100.00
6413;BME280;3239;48.714;9.472;2023-10-09T06:06:43;98330.03;;;10.78;100.00
6413;BME280;3239;48.714;9.472;2023-10-09T06:09:21;98342.16;;;10.82;100.00
6413;BME280;3239;48.714;9.472;2023-10-09T06:11:49;98335.63;;;10.85;100.00
6413;BME280;3239;48.714;9.472;2023-10-09T06:14:19;98347.97;;;10.92;100.00
6413;BME280;3239;48.714;9.472;2023-10-09T06:17:11;98338.50;;;10.93;100.00
6413;BME280;3239;48.714;9.472;2023-10-09T06:19:37;98350.34;;;11.01;100.00
6413;BME280;3239;48.714;9.472;2023-10-09T06:22:09;98347.59;;;11.01;100.00
6413;BME280;3239;48.714;9.472;2023-10-09T06:24:41;98348.25;;;11.07;100.00
6413;BME280;3239;48.714;9.472;2023-10-09T06:27:12;98362.19;;;11.09;100.00
6413;BME280;3239;48.714;9.472;2023-10-09T06:29:42;98361.78;;;11.18;100.00
6413;BME280;3239;48.714;9.472;2023-10-09T06:32:11;98360.13;;;11.28;100.00
6413;BME280;3239;48.714;9.472;2023-10-09T06:34:48;98358.97;;;11.36;100.00
6413;BME280;3239;48.714;9.472;2023-10-09T06:37:42;98354.38;;;11.44;100.00
6413;BME280;3239;48.714;9.472;2023-10-09T06:40:36;98355.84;;;11.58;100.00
6413;BME280;3239;48.714;9.472;2023-10-09T06:43:03;98358.53;;;11.64;100.00
6413;BME280;3239;48.714;9.472;2023-10-09T06:45:38;98368.16;;;11.70;100.00
6413;BME280;3239;48.714;9.472;2023-10-09T06:48:13;98391.25;;;11.75;100.00
6413;BME280;3239;48.714;9.472;2023-10-09T06:51:07;98388.72;;;11.64;100.00
6413;BME280;3239;48.714;9.472;2023-10-09T06:53:56;98386.28;;;11.60;100.00
6413;BME280;3239;48.714;9.472;2023-10-09T06:56:29;98388.28;;;11.60;100.00
6413;BME280;3239;48.714;9.472;2023-10-09T06:59:04;98392.97;;;11.78;100.00
6413;BME280;3239;48.714;9.472;2023-10-09T07:01:40;98395.50;;;11.89;100.00
6413;BME280;3239;48.714;9.472;2023-10-09T07:04:10;98403.50;;;11.87;100.00
6413;BME280;3239;48.714;9.472;2023-10-09T07:07:06;98394.44;;;11.92;100.00
6413;BME280;3239;48.714;9.472;2023-10-09T07:09:38;98410.06;;;11.97;100.00
6413;BME280;3239;48.714;9.472;2023-10-09T07:12:23;98400.28;;;12.01;100.00
6413;BME280;3239;48.714;9.472;2023-10-09T07:14:52;98420.00;;;12.00;100.00
6413;BME280;3239;48.714;9.472;2023-10-09T07:17:21;98421.47;;;12.14;100.00
6413;BME280;3239;48.714;9.472;2023-10-09T07:19:59;98432.91;;;12.18;100.00
6413;BME280;3239;48.714;9.472;2023-10-09T07:22:41;98438.59;;;12.33;100.00
6413;BME280;3239;48.714;9.472;2023-10-09T07:25:22;98441.56;;;12.35;100.00
6413;BME280;3239;48.714;9.472;2023-10-09T07:28:09;98449.38;;;12.44;100.00
6413;BME280;3239;48.714;9.472;2023-10-09T07:30:45;98458.56;;;12.46;100.00
6413;BME280;3239;48.714;9.472;2023-10-09T07:33:12;98451.06;;;12.60;100.00
6413;BME280;3239;48.714;9.472;2023-10-09T07:35:48;98457.16;;;12.66;100.00
6413;BME280;3239;48.714;9.472;2023-10-09T07:38:26;98463.94;;;12.78;100.00
6413;BME280;3239;48.714;9.472;2023-10-09T07:40:56;98470.16;;;12.91;100.00
6413;BME280;3239;48.714;9.472;2023-10-09T07:43:38;98465.91;;;12.90;100.00
6413;BME280;3239;48.714;9.472;2023-10-09T07:46:06;98477.00;;;12.98;100.00
6413;BME280;3239;48.714;9.472;2023-10-09T07:48:50;98487.00;;;13.21;100.00
6413;BME280;3239;48.714;9.472;2023-10-09T07:51:23;98482.28;;;13.42;100.00
6413;BME280;3239;48.714;9.472;2023-10-09T07:53:57;98484.03;;;13.53;100.00
6413;BME280;3239;48.714;9.472;2023-10-09T07:56:33;98495.84;;;13.61;100.00
6413;BME280;3239;48.714;9.472;2023-10-09T07:59:05;98502.63;;;13.39;100.00
6413;BME280;3239;48.714;9.472;2023-10-09T08:01:40;98518.91;;;13.37;100.00
6413;BME280;3239;48.714;9.472;2023-10-09T08:04:22;98520.16;;;13.49;100.00
6413;BME280;3239;48.714;9.472;2023-10-09T08:07:10;98522.00;;;13.67;100.00
6413;BME280;3239;48.714;9.472;2023-10-09T08:09:47;98524.13;;;13.82;100.00
6413;BME280;3239;48.714;9.472;2023-10-09T08:12:36;98527.38;;;13.93;100.00
6413;BME280;3239;48.714;9.472;2023-10-09T08:15:07;98531.59;;;13.94;100.00
6413;BME280;3239;48.714;9.472;2023-10-09T08:17:57;98533.63;;;14.14;100.00
6413;BME280;3239;48.714;9.472;2023-10-09T08:20:36;98532.59;;;14.45;100.00
6413;BME280;3239;48.714;9.472;2023-10-09T08:23:23;98545.81;;;14.75;100.00
6413;BME280;3239;48.714;9.472;2023-10-09T08:26:01;98538.66;;;14.79;100.00
6413;BME280;3239;48.714;9.472;2023-10-09T08:28:44;98538.56;;;14.92;100.00
6413;BME280;3239;48.714;9.472;2023-10-09T08:31:16;98540.56;;;14.92;100.00
6413;BME280;3239;48.714;9.472;2023-10-09T08:33:48;98548.47;;;15.23;100.00
6413;BME280;3239;48.714;9.472;2023-10-09T08:36:27;98544.09;;;15.35;100.00
6413;BME280;3239;48.714;9.472;2023-10-09T08:39:03;98553.59;;;15.70;100.00
6413;BME280;3239;48.714;9.472;2023-10-09T08:41:42;98551.22;;;15.81;100.00
6413;BME280;3239;48.714;9.472;2023-10-09T08:44:11;98547.38;;;16.07;100.00
6413;BME280;3239;48.714;9.472;2023-10-09T08:46:38;98557.31;;;16.17;100.00
6413;BME280;3239;48.714;9.472;2023-10-09T08:49:05;98559.94;;;16.45;100.00
6413;BME280;3239;48.714;9.472;2023-10-09T08:51:34;98564.31;;;16.71;100.00
6413;BME280;3239;48.714;9.472;2023-10-09T08:54:01;98578.28;;;16.95;100.00
6413;BME280;3239;48.714;9.472;2023-10-09T08:56:26;98591.19;;;17.08;100.00
6413;BME280;3239;48.714;9.472;2023-10-09T08:58:56;98606.44;;;17.39;100.00
6413;BME280;3239;48.714;9.472;2023-10-09T09:01:23;98617.66;;;17.48;100.00
6413;BME280;3239;48.714;9.472;2023-10-09T09:03:51;98625.53;;;17.67;100.00
6413;BME280;3239;48.714;9.472;2023-10-09T09:06:21;98644.22;;;17.59;100.00
6413;BME280;3239;48.714;9.472;2023-10-09T09:08:50;98652.44;;;17.81;100.00
6413;BME280;3239;48.714;9.472;2023-10-09T09:11:20;98663.28;;;17.94;100.00
6413;BME280;3239;48.714;9.472;2023-10-09T09:16:31;98681.75;;;17.37;100.00
6413;BME280;3239;48.714;9.472;2023-10-09T09:21:29;98695.00;;;17.69;100.00
6413;BME280;3239;48.714;9.472;2023-10-09T09:23:59;98706.16;;;17.93;100.00
6413;BME280;3239;48.714;9.472;2023-10-09T09:26:39;98702.75;;;18.10;100.00
6413;BME280;3239;48.714;9.472;2023-10-09T09:29:12;98718.97;;;17.81;100.00
6413;BME280;3239;48.714;9.472;2023-10-09T09:31:38;98714.41;;;18.08;100.00
6413;BME280;3239;48.714;9.472;2023-10-09T09:34:07;98734.63;;;18.33;100.00
6413;BME280;3239;48.714;9.472;2023-10-09T09:36:56;98734.16;;;18.12;100.00
6413;BME280;3239;48.714;9.472;2023-10-09T09:39:26;98739.63;;;18.67;100.00
6413;BME280;3239;48.714;9.472;2023-10-09T09:42:00;98749.41;;;18.68;100.00
6413;BME280;3239;48.714;9.472;2023-10-09T09:44:44;98746.88;;;18.87;100.00
6413;BME280;3239;48.714;9.472;2023-10-09T09:47:14;98749.09;;;18.88;100.00
6413;BME280;3239;48.714;9.472;2023-10-09T09:49:57;98747.72;;;19.21;100.00
6413;BME280;3239;48.714;9.472;2023-10-09T09:52:29;98754.69;;;19.30;100.00
6413;BME280;3239;48.714;9.472;2023-10-09T09:55:08;98750.72;;;19.57;100.00
6413;BME280;3239;48.714;9.472;2023-10-09T09:57:41;98746.63;;;19.92;100.00
6413;BME280;3239;48.714;9.472;2023-10-09T10:00:13;98753.78;;;20.29;100.00
6413;BME280;3239;48.714;9.472;2023-10-09T10:05:52;98765.38;;;20.09;100.00
6413;BME280;3239;48.714;9.472;2023-10-09T10:08:20;98767.44;;;20.08;100.00
6413;BME280;3239;48.714;9.472;2023-10-09T10:10:48;98756.00;;;20.31;100.00
6413;BME280;3239;48.714;9.472;2023-10-09T10:16:13;98763.78;;;21.21;100.00
6413;BME280;3239;48.714;9.472;2023-10-09T10:19:00;98762.19;;;21.28;100.00
6413;BME280;3239;48.714;9.472;2023-10-09T10:21:34;98768.78;;;21.23;100.00
6413;BME280;3239;48.714;9.472;2023-10-09T10:32:59;98757.75;;;21.89;100.00
6413;BME280;3239;48.714;9.472;2023-10-09T10:35:43;98762.88;;;22.12;100.00
6413;BME280;3239;48.714;9.472;2023-10-09T10:38:24;98765.19;;;22.34;100.00
6413;BME280;3239;48.714;9.472;2023-10-09T10:40:51;98762.88;;;22.12;100.00
6413;BME280;3239;48.714;9.472;2023-10-09T10:43:23;98764.03;;;22.18;100.00
6413;BME280;3239;48.714;9.472;2023-10-09T10:46:08;98763.84;;;22.54;100.00
6413;BME280;3239;48.714;9.472;2023-10-09T10:48:42;98764.00;;;22.56;100.00
6413;BME280;3239;48.714;9.472;2023-10-09T10:51:13;98763.63;;;22.81;100.00
6413;BME280;3239;48.714;9.472;2023-10-09T10:53:51;98761.00;;;22.73;100.00
6413;BME280;3239;48.714;9.472;2023-10-09T10:56:18;98763.00;;;22.82;100.00
6413;BME280;3239;48.714;9.472;2023-10-09T10:59:02;98765.63;;;22.99;100.00
6413;BME280;3239;48.714;9.472;2023-10-09T11:01:35;98760.31;;;22.94;100.00
6413;BME280;3239;48.714;9.472;2023-10-09T11:04:20;98751.75;;;23.01;100.00
6413;BME280;3239;48.714;9.472;2023-10-09T11:06:59;98747.31;;;23.08;100.00
6413;BME280;3239;48.714;9.472;2023-10-09T11:09:55;98754.50;;;23.20;100.00
6413;BME280;3239;48.714;9.472;2023-10-09T11:12:28;98752.00;;;23.15;100.00
6413;BME280;3239;48.714;9.472;2023-10-09T11:15:12;98759.16;;;23.27;100.00
6413;BME280;3239;48.714;9.472;2023-10-09T11:18:05;98752.91;;;23.38;100.00
6413;BME280;3239;48.714;9.472;2023-10-09T11:20:35;98751.25;;;23.45;100.00
6413;BME280;3239;48.714;9.472;2023-10-09T11:23:02;98756.25;;;23.46;100.00
6413;BME280;3239;48.714;9.472;2023-10-09T11:25:42;98750.03;;;23.48;100.00
6413;BME280;3239;48.714;9.472;2023-10-09T11:28:22;98759.06;;;23.46;100.00
6413;BME280;3239;48.714;9.472;2023-10-09T11:31:11;98770.78;;;23.75;100.00
6413;BME280;3239;48.714;9.472;2023-10-09T11:33:43;98771.38;;;23.74;100.00
6413;BME280;3239;48.714;9.472;2023-10-09T11:36:10;98771.00;;;23.89;100.00
6413;BME280;3239;48.714;9.472;2023-10-09T11:38:37;98767.41;;;24.09;100.00
6413;BME280;3239;48.714;9.472;2023-10-09T11:41:16;98760.19;;;24.27;100.00
6413;BME280;3239;48.714;9.472;2023-10-09T11:43:53;98757.06;;;24.00;100.00
6413;BME280;3239;48.714;9.472;2023-10-09T11:46:21;98764.97;;;23.83;100.00
6413;BME280;3239;48.714;9.472;2023-10-09T11:49:07;98761.59;;;23.63;100.00
6413;BME280;3239;48.714;9.472;2023-10-09T11:51:45;98760.53;;;23.47;100.00
6413;BME280;3239;48.714;9.472;2023-10-09T11:54:32;98756.25;;;23.46;100.00
6413;BME280;3239;48.714;9.472;2023-10-09T11:56:59;98753.66;;;23.39;100.00
6413;BME280;3239;48.714;9.472;2023-10-09T11:59:32;98743.34;;;23.41;100.00
6413;BME280;3239;48.714;9.472;2023-10-09T12:02:07;98725.72;;;23.29;100.00
6413;BME280;3239;48.714;9.472;2023-10-09T12:04:41;98730.59;;;23.29;100.00
6413;BME280;3239;48.714;9.472;2023-10-09T12:07:10;98727.47;;;23.04;100.00
6413;BME280;3239;48.714;9.472;2023-10-09T12:09:37;98722.88;;;23.08;100.00
6413;BME280;3239;48.714;9.472;2023-10-09T12:12:07;98715.22;;;23.18;100.00
6413;BME280;3239;48.714;9.472;2023-10-09T12:14:36;98720.97;;;23.11;100.00
6413;BME280;3239;48.714;9.472;2023-10-09T12:17:07;98701.22;;;23.18;100.00
6413;BME280;3239;48.714;9.472;2023-10-09T12:19:38;98703.59;;;23.12;100.00
6413;BME280;3239;48.714;9.472;2023-10-09T12:22:07;98707.34;;;22.65;100.00
6413;BME280;3239;48.714;9.472;2023-10-09T12:24:36;98705.72;;;22.72;100.00
6413;BME280;3239;48.714;9.472;2023-10-09T12:27:09;98699.13;;;22.98;100.00
6413;BME280;3239;48.714;9.472;2023-10-09T12:29:37;98712.09;;;22.93;100.00
6413;BME280;3239;48.714;9.472;2023-10-09T12:32:03;98702.59;;;23.08;100.00
6413;BME280;3239;48.714;9.472;2023-10-09T12:34:36;98701.81;;;23.38;100.00
6413;BME280;3239;48.714;9.472;2023-10-09T12:37:04;98699.69;;;23.48;100.00
6413;BME280;3239;48.714;9.472;2023-10-09T12:39:30;98683.34;;;23.86;100.00
6413;BME280;3239;48.714;9.472;2023-10-09T12:42:00;98673.41;;;24.39;100.00
6413;BME280;3239;48.714;9.472;2023-10-09T12:44:35;98658.34;;;24.78;100.00
6413;BME280;3239;48.714;9.472;2023-10-09T12:47:08;98648.22;;;24.62;100.00
6413;BME280;3239;48.714;9.472;2023-10-09T12:49:37;98625.50;;;25.04;100.00
6413;BME280;3239;48.714;9.472;2023-10-09T12:52:10;98606.16;;;24.85;100.00
6413;BME280;3239;48.714;9.472;2023-10-09T12:54:43;98610.06;;;24.80;100.00
6413;BME280;3239;48.714;9.472;2023-10-09T12:57:11;98634.81;;;24.72;100.00
6413;BME280;3239;48.714;9.472;2023-10-09T12:59:40;98645.63;;;25.00;100.00
6413;BME280;3239;48.714;9.472;2023-10-09T13:02:14;98644.28;;;25.13;100.00
6413;BME280;3239;48.714;9.472;2023-10-09T13:04:55;98641.47;;;25.13;100.00
6413;BME280;3239;48.714;9.472;2023-10-09T13:07:21;98658.44;;;24.92;100.00
6413;BME280;3239;48.714;9.472;2023-10-09T13:09:48;98649.38;;;25.05;100.00
6413;BME280;3239;48.714;9.472;2023-10-09T13:12:32;98642.94;;;25.02;100.00
6413;BME280;3239;48.714;9.472;2023-10-09T13:14:58;98651.19;;;25.12;100.00
6413;BME280;3239;48.714;9.472;2023-10-09T13:17:24;98652.06;;;24.45;100.00
6413;BME280;3239;48.714;9.472;2023-10-09T13:19:53;98658.22;;;24.09;100.00
6413;BME280;3239;48.714;9.472;2023-10-09T13:22:20;98652.97;;;24.71;100.00
6413;BME280;3239;48.714;9.472;2023-10-09T13:24:48;98661.22;;;25.03;100.00
6413;BME280;3239;48.714;9.472;2023-10-09T13:27:15;98651.72;;;25.81;100.00
6413;BME280;3239;48.714;9.472;2023-10-09T13:29:47;98647.41;;;26.55;100.00
6413;BME280;3239;48.714;9.472;2023-10-09T13:32:13;98645.94;;;27.22;95.47
6413;BME280;3239;48.714;9.472;2023-10-09T13:34:40;98639.25;;;27.15;90.77
6413;BME280;3239;48.714;9.472;2023-10-09T13:37:14;98638.34;;;26.97;86.43
6413;BME280;3239;48.714;9.472;2023-10-09T13:39:45;98639.53;;;26.02;96.63
6413;BME280;3239;48.714;9.472;2023-10-09T13:42:21;98633.50;;;25.94;100.00
6413;BME280;3239;48.714;9.472;2023-10-09T13:44:51;98635.00;;;25.58;100.00
6413;BME280;3239;48.714;9.472;2023-10-09T13:47:19;98641.31;;;25.59;100.00
6413;BME280;3239;48.714;9.472;2023-10-09T13:49:47;98635.22;;;25.62;100.00
6413;BME280;3239;48.714;9.472;2023-10-09T13:52:16;98639.19;;;26.21;100.00
6413;BME280;3239;48.714;9.472;2023-10-09T13:54:47;98646.44;;;27.32;100.00
6413;BME280;3239;48.714;9.472;2023-10-09T13:57:15;98629.03;;;28.22;97.76
6413;BME280;3239;48.714;9.472;2023-10-09T13:59:41;98623.34;;;27.91;97.40
6413;BME280;3239;48.714;9.472;2023-10-09T14:02:17;98624.78;;;27.63;87.97
6413;BME280;3239;48.714;9.472;2023-10-09T14:04:47;98621.38;;;27.22;90.23
6413;BME280;3239;48.714;9.472;2023-10-09T14:07:14;98614.66;;;27.29;90.27
6413;BME280;3239;48.714;9.472;2023-10-09T14:09:43;98615.63;;;28.07;85.26
6413;BME280;3239;48.714;9.472;2023-10-09T14:12:09;98611.56;;;28.26;79.79
6413;BME280;3239;48.714;9.472;2023-10-09T14:14:45;98614.28;;;28.55;80.33
6413;BME280;3239;48.714;9.472;2023-10-09T14:17:15;98618.28;;;27.74;73.45